Terminal Aerodrome Forecast
Issued by NWS

Home | Current Version | Previous Version | Graphics & Text | Print | Product List | Glossary On
Versions: 1 2 3 4 5 6 7 8 9 10 11 12 13 14 15
000
FTUS43 KICT 231640 AAC
TAFSLN
TAF AMD
KSLN 231640Z 2317/2412 33011KT 6SM -RADZ SCT025 BKN045
     FM231745 34026G35KT 6SM -RADZ SCT025 BKN035
     FM240000 33017G26KT P6SM SCT060 BKN100
     FM240400 29014KT P6SM FEW100 SCT250=

USA.gov is the U.S. government's official web portal to all federal, state and local government web resources and services.